createdAt,value
2023-02-12T00:02:08.933Z,6.20
2023-02-12T00:04:56.497Z,6.53
2023-02-12T00:07:44.027Z,6.60
2023-02-12T00:10:31.621Z,6.60
2023-02-12T00:13:19.282Z,6.40
2023-02-12T00:16:16.292Z,6.37
2023-02-12T00:19:04.600Z,7.03
2023-02-12T00:21:52.186Z,7.97
2023-02-12T00:24:39.785Z,8.83
2023-02-12T00:27:27.312Z,7.03
2023-02-12T00:30:15.192Z,5.87
2023-02-12T00:33:02.945Z,6.30
2023-02-12T00:35:59.322Z,6.00
2023-02-12T00:38:48.003Z,7.13
2023-02-12T00:41:35.542Z,5.13
2023-02-12T00:44:23.159Z,7.13
2023-02-12T00:47:10.838Z,6.77
2023-02-12T00:49:58.347Z,7.33
2023-02-12T00:52:45.911Z,7.80
2023-02-12T00:55:34.326Z,7.20
2023-02-12T00:58:22.372Z,6.60
2023-02-12T01:01:10.055Z,6.60
2023-02-12T01:03:57.788Z,6.23
2023-02-12T01:06:45.656Z,8.23
2023-02-12T01:09:33.394Z,6.63
2023-02-12T01:12:20.945Z,6.10
2023-02-12T01:15:10.582Z,6.03
2023-02-12T01:17:58.116Z,6.30
2023-02-12T01:20:45.661Z,6.70
2023-02-12T01:23:33.716Z,6.43
2023-02-12T01:26:22.806Z,7.07
2023-02-12T01:29:11.259Z,7.27
2023-02-12T01:31:58.921Z,6.70
2023-02-12T01:34:46.576Z,6.27
2023-02-12T01:37:37.776Z,7.43
2023-02-12T01:40:25.349Z,7.00
2023-02-12T01:43:13.309Z,8.13
2023-02-12T01:46:02.693Z,9.47
2023-02-12T01:48:50.661Z,7.97
2023-02-12T01:51:39.539Z,6.90
2023-02-12T01:54:29.465Z,7.87
2023-02-12T01:57:19.344Z,8.37
2023-02-12T02:00:15.096Z,7.77
2023-02-12T02:03:03.102Z,7.83
2023-02-12T02:06:03.800Z,7.67
2023-02-12T02:08:51.828Z,7.80
2023-02-12T02:11:57.901Z,9.93
2023-02-12T02:14:47.593Z,6.73
2023-02-12T02:17:51.474Z,7.47
2023-02-12T02:20:59.816Z,6.87
2023-02-12T02:24:35.493Z,5.77
2023-02-12T02:27:25.712Z,6.97
2023-02-12T02:30:36.480Z,9.43
2023-02-12T02:33:52.282Z,6.63
2023-02-12T02:37:01.456Z,8.07
2023-02-12T02:40:07.497Z,8.77
2023-02-12T02:43:15.705Z,7.63
2023-02-12T02:46:15.056Z,6.97
2023-02-12T02:49:23.171Z,7.33
2023-02-12T02:52:18.874Z,7.10
2023-02-12T02:55:13.200Z,7.40
2023-02-12T02:58:09.581Z,8.20
2023-02-12T03:01:30.637Z,9.67
2023-02-12T03:04:31.061Z,7.10
2023-02-12T03:07:28.621Z,7.57
2023-02-12T03:10:29.545Z,9.83
2023-02-12T03:14:08.440Z,10.37
2023-02-12T03:17:05.490Z,9.23
2023-02-12T03:20:02.181Z,7.83
2023-02-12T03:23:02.245Z,9.57
2023-02-12T03:26:12.089Z,9.23
2023-02-12T03:28:59.664Z,7.87
2023-02-12T03:32:17.226Z,9.13
2023-02-12T03:35:16.381Z,8.47
2023-02-12T03:38:30.817Z,10.00
2023-02-12T03:41:44.069Z,9.93
2023-02-12T03:44:58.161Z,8.20
2023-02-12T03:48:11.358Z,5.63
2023-02-12T03:51:16.508Z,6.40
2023-02-12T03:54:07.436Z,6.47
2023-02-12T03:57:30.799Z,7.50
2023-02-12T04:00:22.846Z,7.90
2023-02-12T04:03:10.588Z,6.87
2023-02-12T04:05:58.334Z,7.57
2023-02-12T04:08:45.944Z,7.57
2023-02-12T04:11:57.987Z,11.27
2023-02-12T04:15:37.860Z,8.07
2023-02-12T04:18:45.023Z,10.70
2023-02-12T04:22:00.578Z,8.37
2023-02-12T04:25:16.154Z,10.67
2023-02-12T04:28:33.748Z,10.80
2023-02-12T04:32:03.300Z,9.43
2023-02-12T04:35:15.892Z,8.90
2023-02-12T04:38:38.681Z,8.77
2023-02-12T04:41:27.074Z,10.37
2023-02-12T04:44:24.565Z,8.63
2023-02-12T04:47:17.459Z,9.03
2023-02-12T04:50:06.373Z,9.33
2023-02-12T04:52:53.976Z,6.87
2023-02-12T04:55:41.554Z,6.90
2023-02-12T04:58:29.050Z,8.50
2023-02-12T05:01:16.763Z,8.97
2023-02-12T05:04:06.375Z,7.63
2023-02-12T05:06:53.895Z,7.07
2023-02-12T05:09:41.419Z,8.00
2023-02-12T05:12:28.899Z,7.17
2023-02-12T05:15:16.519Z,6.30
2023-02-12T05:18:04.250Z,8.53
2023-02-12T05:21:03.997Z,8.77
2023-02-12T05:23:51.597Z,7.77
2023-02-12T05:26:39.159Z,8.47
2023-02-12T05:29:26.730Z,9.77
2023-02-12T05:32:14.436Z,8.37
2023-02-12T05:35:02.042Z,7.60
2023-02-12T05:37:49.625Z,6.83
2023-02-12T05:40:37.612Z,6.63
2023-02-12T05:43:25.265Z,7.63
2023-02-12T05:46:13.242Z,8.83
2023-02-12T05:49:00.915Z,8.23
2023-02-12T05:51:50.005Z,9.63
2023-02-12T05:54:37.546Z,10.80
2023-02-12T05:57:25.091Z,8.97
2023-02-12T06:00:14.806Z,9.53
2023-02-12T06:03:02.541Z,6.17
2023-02-12T06:05:53.897Z,8.93
2023-02-12T06:08:41.918Z,9.63
2023-02-12T06:11:29.872Z,9.87
2023-02-12T06:14:20.422Z,9.07
2023-02-12T06:17:08.215Z,6.77
2023-02-12T06:19:55.694Z,10.03
2023-02-12T06:22:43.254Z,8.67
2023-02-12T06:25:30.720Z,8.17
2023-02-12T06:28:18.506Z,8.73
2023-02-12T06:31:06.422Z,9.07
2023-02-12T06:33:56.477Z,8.30
2023-02-12T06:36:46.675Z,10.97
2023-02-12T06:39:34.220Z,10.77
2023-02-12T06:42:21.794Z,9.50
2023-02-12T06:45:09.757Z,9.23
2023-02-12T06:47:57.289Z,9.53
2023-02-12T06:50:44.954Z,8.40
2023-02-12T06:53:35.070Z,8.37
2023-02-12T06:56:26.649Z,11.03
2023-02-12T06:59:17.002Z,8.73
2023-02-12T07:02:04.566Z,7.43
2023-02-12T07:04:52.155Z,7.53
2023-02-12T07:07:39.731Z,9.20
2023-02-12T07:10:27.370Z,9.20
2023-02-12T07:13:14.930Z,9.77
2023-02-12T07:16:12.848Z,10.03
2023-02-12T07:19:00.451Z,9.03
2023-02-12T07:21:48.007Z,10.40
2023-02-12T07:24:35.825Z,10.83
2023-02-12T07:27:23.319Z,10.83
2023-02-12T07:30:11.469Z,9.70
2023-02-12T07:32:59.004Z,10.23
2023-02-12T07:35:46.954Z,8.97
2023-02-12T07:38:39.642Z,10.60
2023-02-12T07:41:34.050Z,11.57
2023-02-12T07:44:21.831Z,8.90
2023-02-12T07:47:09.440Z,9.73
2023-02-12T07:49:56.928Z,10.47
2023-02-12T07:52:44.840Z,10.90
2023-02-12T07:55:32.331Z,9.07
2023-02-12T07:58:19.967Z,10.20
2023-02-12T08:01:15.946Z,9.30
2023-02-12T08:04:08.655Z,9.53
2023-02-12T08:06:57.467Z,10.03
2023-02-12T08:09:44.939Z,9.93
2023-02-12T08:12:32.586Z,10.07
2023-02-12T08:15:20.122Z,10.73
2023-02-12T08:18:07.624Z,10.07
2023-02-12T08:20:55.181Z,11.20
2023-02-12T08:23:42.731Z,7.93
2023-02-12T08:26:33.876Z,13.73
2023-02-12T08:29:28.247Z,9.57
2023-02-12T08:32:17.318Z,9.37
2023-02-12T08:35:05.032Z,10.93
2023-02-12T08:37:52.961Z,10.57
2023-02-12T08:40:40.519Z,9.83
2023-02-12T08:43:28.212Z,11.43
2023-02-12T08:46:22.108Z,10.27
2023-02-12T08:49:18.045Z,11.10
2023-02-12T08:52:05.582Z,9.37
2023-02-12T08:54:53.262Z,8.63
2023-02-12T08:57:42.980Z,11.13
2023-02-12T09:00:30.807Z,11.33
2023-02-12T09:03:18.375Z,10.97
2023-02-12T09:06:08.001Z,8.77
2023-02-12T09:08:56.265Z,11.87
2023-02-12T09:11:45.104Z,10.10
2023-02-12T09:14:32.743Z,9.77
2023-02-12T09:17:20.233Z,9.50
2023-02-12T09:20:08.501Z,12.57
2023-02-12T09:22:56.016Z,9.63
2023-02-12T09:25:45.752Z,10.93
2023-02-12T09:28:34.067Z,9.77
2023-02-12T09:31:31.093Z,10.07
2023-02-12T09:34:18.990Z,10.23
2023-02-12T09:37:06.542Z,11.50
2023-02-12T09:39:54.106Z,9.47
2023-02-12T09:43:18.559Z,10.33
2023-02-12T09:46:38.005Z,10.10
2023-02-12T09:50:21.306Z,10.63
2023-02-12T09:53:21.567Z,11.60
2023-02-12T09:56:20.741Z,11.87
2023-02-12T09:59:10.020Z,8.83
2023-02-12T10:01:59.880Z,9.47
2023-02-12T10:05:00.771Z,10.83
2023-02-12T10:08:22.170Z,11.73
2023-02-12T10:11:44.084Z,10.83
2023-02-12T10:15:01.489Z,9.83
2023-02-12T10:18:06.447Z,9.17
2023-02-12T10:21:39.755Z,10.40
2023-02-12T10:24:58.017Z,11.13
2023-02-12T10:27:54.262Z,11.57
2023-02-12T10:31:00.065Z,10.13
2023-02-12T10:33:51.096Z,11.70
2023-02-12T10:36:49.902Z,12.17
2023-02-12T10:39:46.274Z,12.07
2023-02-12T10:42:44.635Z,12.10
2023-02-12T10:45:40.073Z,12.67
2023-02-12T10:48:40.302Z,12.00
2023-02-12T10:52:39.273Z,8.87
2023-02-12T10:55:33.689Z,8.80
2023-02-12T10:58:25.135Z,9.57
2023-02-12T11:01:22.331Z,7.47
2023-02-12T11:04:33.900Z,10.23
2023-02-12T11:07:23.368Z,10.30
2023-02-12T11:10:26.206Z,9.10
2023-02-12T11:13:45.895Z,9.17
2023-02-12T11:16:44.828Z,10.40
2023-02-12T11:19:35.232Z,10.73
2023-02-12T11:22:22.806Z,11.83
2023-02-12T11:25:17.017Z,10.23
2023-02-12T11:28:18.359Z,10.47
2023-02-12T11:31:27.460Z,9.83
2023-02-12T11:34:20.362Z,10.77
2023-02-12T11:37:18.911Z,10.13
2023-02-12T11:40:07.651Z,11.23
2023-02-12T11:43:05.979Z,10.63
2023-02-12T11:45:57.227Z,10.20
2023-02-12T11:48:47.694Z,8.33
2023-02-12T11:51:37.902Z,8.30
2023-02-12T11:54:29.678Z,8.97
2023-02-12T11:57:47.935Z,8.37
2023-02-12T12:00:47.898Z,10.10
2023-02-12T12:03:46.761Z,9.50
2023-02-12T12:06:37.100Z,8.73
2023-02-12T12:09:35.217Z,9.30
2023-02-12T12:12:39.174Z,8.10
2023-02-12T12:15:55.115Z,8.47
2023-02-12T12:19:11.378Z,8.53
2023-02-12T12:22:16.530Z,8.63
2023-02-12T12:25:22.142Z,8.93
2023-02-12T12:28:44.998Z,9.37
2023-02-12T12:31:40.501Z,9.10
2023-02-12T12:34:29.640Z,7.73
2023-02-12T12:37:56.102Z,8.23
2023-02-12T12:41:18.592Z,8.43
2023-02-12T12:44:24.897Z,7.33
2023-02-12T12:47:51.002Z,8.37
2023-02-12T12:50:50.633Z,8.97
2023-02-12T12:54:07.617Z,6.60
2023-02-12T12:57:44.463Z,8.30
2023-02-12T13:01:27.035Z,8.53
2023-02-12T13:04:45.123Z,8.60
2023-02-12T13:08:28.259Z,8.30
2023-02-12T13:11:39.151Z,6.10
2023-02-12T13:14:44.082Z,6.97
2023-02-12T13:17:50.392Z,7.90
2023-02-12T13:20:48.949Z,7.27
2023-02-12T13:23:57.227Z,9.07
2023-02-12T13:27:07.352Z,7.37
2023-02-12T13:30:32.030Z,7.97
2023-02-12T13:33:29.515Z,7.77
2023-02-12T13:36:17.222Z,7.80
2023-02-12T13:39:22.282Z,8.40
2023-02-12T13:42:24.330Z,7.17
2023-02-12T13:45:24.894Z,7.87
2023-02-12T13:48:36.866Z,8.87
2023-02-12T13:51:54.171Z,7.67
2023-02-12T13:54:59.991Z,8.27
2023-02-12T13:58:11.854Z,7.53
2023-02-12T14:01:14.672Z,8.37
2023-02-12T14:04:59.938Z,7.40
2023-02-12T14:07:54.250Z,6.20
2023-02-12T14:10:42.905Z,6.43
2023-02-12T14:13:45.376Z,7.40
2023-02-12T14:16:32.856Z,5.80
2023-02-12T14:19:50.628Z,5.63
2023-02-12T14:22:44.158Z,6.87
2023-02-12T14:25:41.562Z,6.77
2023-02-12T14:28:55.009Z,5.83
2023-02-12T14:31:42.787Z,5.77
2023-02-12T14:34:36.314Z,5.87
2023-02-12T14:37:38.007Z,8.20
2023-02-12T14:40:44.868Z,7.43
2023-02-12T14:43:58.083Z,7.97
2023-02-12T14:46:58.156Z,7.37
2023-02-12T14:49:52.269Z,7.50
2023-02-12T14:52:47.034Z,6.47
2023-02-12T14:55:40.340Z,6.03
2023-02-12T14:58:31.242Z,7.10
2023-02-12T15:01:32.266Z,7.87
2023-02-12T15:04:38.062Z,7.13
2023-02-12T15:08:24.130Z,7.20
2023-02-12T15:11:35.764Z,5.30
2023-02-12T15:14:32.111Z,6.23
2023-02-12T15:17:29.995Z,6.10
2023-02-12T15:20:25.851Z,7.63
2023-02-12T15:23:40.145Z,6.93
2023-02-12T15:26:30.646Z,7.60
2023-02-12T15:29:44.134Z,6.53
2023-02-12T15:32:35.199Z,7.60
2023-02-12T15:35:37.989Z,7.07
2023-02-12T15:38:38.246Z,8.13
2023-02-12T15:41:36.873Z,6.27
2023-02-12T15:44:29.303Z,7.03
2023-02-12T15:47:17.385Z,6.97
2023-02-12T15:50:05.676Z,7.33
2023-02-12T15:52:54.381Z,6.63
2023-02-12T15:55:47.801Z,6.43
2023-02-12T15:58:47.761Z,6.50
2023-02-12T16:01:35.829Z,6.37
2023-02-12T16:04:25.980Z,5.77
2023-02-12T16:07:14.603Z,5.57
2023-02-12T16:10:03.246Z,6.67
2023-02-12T16:12:51.939Z,8.00
2023-02-12T16:15:40.532Z,5.20
2023-02-12T16:18:28.121Z,5.60
2023-02-12T16:21:19.483Z,6.20
2023-02-12T16:24:27.426Z,7.47
2023-02-12T16:27:25.326Z,5.40
2023-02-12T16:30:34.916Z,5.73
2023-02-12T16:33:39.527Z,5.83
2023-02-12T16:36:31.584Z,6.97
2023-02-12T16:40:14.110Z,6.00
2023-02-12T16:43:22.037Z,6.53
2023-02-12T16:46:11.727Z,6.10
2023-02-12T16:49:02.433Z,6.27
2023-02-12T16:51:51.924Z,6.03
2023-02-12T16:54:39.494Z,5.13
2023-02-12T16:57:27.015Z,5.87
2023-02-12T17:00:18.025Z,6.73
2023-02-12T17:03:06.077Z,5.70
2023-02-12T17:05:53.668Z,6.50
2023-02-12T17:08:41.492Z,7.00
2023-02-12T17:11:30.049Z,7.73
2023-02-12T17:14:20.596Z,7.57
2023-02-12T17:17:08.318Z,7.33
2023-02-12T17:19:55.871Z,7.53
2023-02-12T17:22:54.089Z,7.33
2023-02-12T17:25:41.731Z,5.40
2023-02-12T17:28:29.667Z,5.57
2023-02-12T17:31:17.776Z,6.57
2023-02-12T17:34:05.719Z,6.40
2023-02-12T17:36:53.533Z,5.53
2023-02-12T17:39:41.105Z,6.43
2023-02-12T17:42:28.756Z,6.30
2023-02-12T17:45:17.311Z,6.00
2023-02-12T17:48:05.382Z,6.40
2023-02-12T17:50:59.471Z,6.57
2023-02-12T17:53:47.833Z,5.93
2023-02-12T17:56:35.637Z,6.17
2023-02-12T17:59:23.252Z,7.07
2023-02-12T18:02:12.694Z,7.07
2023-02-12T18:05:00.255Z,5.67
2023-02-12T18:07:47.876Z,6.13
2023-02-12T18:10:42.022Z,8.63
2023-02-12T18:13:30.097Z,7.67
2023-02-12T18:16:17.775Z,7.67
2023-02-12T18:19:05.992Z,6.43
2023-02-12T18:21:53.790Z,8.03
2023-02-12T18:24:41.657Z,7.33
2023-02-12T18:27:29.261Z,8.07
2023-02-12T18:30:17.238Z,6.30
2023-02-12T18:33:06.398Z,9.10
2023-02-12T18:36:05.254Z,7.40
2023-02-12T18:38:53.400Z,9.43
2023-02-12T18:41:40.933Z,8.60
2023-02-12T18:44:28.504Z,10.30
2023-02-12T18:47:17.633Z,10.33
2023-02-12T18:50:07.389Z,10.10
2023-02-12T18:52:55.462Z,11.80
2023-02-12T18:55:43.004Z,11.17
2023-02-12T18:58:30.747Z,12.70
2023-02-12T19:01:20.973Z,11.20
2023-02-12T19:04:12.914Z,9.87
2023-02-12T19:07:00.478Z,8.97
2023-02-12T19:09:48.014Z,10.27
2023-02-12T19:12:35.580Z,10.60
2023-02-12T19:15:23.709Z,9.07
2023-02-12T19:18:11.206Z,10.13
2023-02-12T19:20:59.010Z,7.70
2023-02-12T19:23:47.032Z,7.60
2023-02-12T19:26:36.265Z,8.73
2023-02-12T19:29:24.172Z,9.27
2023-02-12T19:32:11.696Z,8.53
2023-02-12T19:34:59.356Z,7.87
2023-02-12T19:37:46.881Z,8.00
2023-02-12T19:40:34.415Z,6.23
2023-02-12T19:43:21.958Z,7.40
2023-02-12T19:46:17.888Z,7.30
2023-02-12T19:49:06.897Z,6.23
2023-02-12T19:51:54.900Z,6.67
2023-02-12T19:54:45.306Z,6.33
2023-02-12T19:57:34.232Z,6.60
2023-02-12T20:00:21.956Z,8.17
2023-02-12T20:03:09.565Z,7.07
2023-02-12T20:06:03.961Z,9.87
2023-02-12T20:08:52.432Z,7.90
2023-02-12T20:11:40.770Z,9.57
2023-02-12T20:14:28.823Z,7.63
2023-02-12T20:17:16.700Z,8.73
2023-02-12T20:20:06.441Z,8.30
2023-02-12T20:22:53.914Z,9.30
2023-02-12T20:25:45.477Z,10.33
2023-02-12T20:28:34.752Z,9.80
2023-02-12T20:31:27.690Z,10.40
2023-02-12T20:34:18.706Z,9.90
2023-02-12T20:37:07.032Z,10.23
2023-02-12T20:39:54.538Z,11.43
2023-02-12T20:42:42.456Z,9.60
2023-02-12T20:45:30.137Z,11.47
2023-02-12T20:48:19.655Z,10.47
2023-02-12T20:51:11.532Z,10.53
2023-02-12T20:54:03.025Z,10.00
2023-02-12T20:56:51.038Z,8.90
2023-02-12T20:59:39.014Z,10.70
2023-02-12T21:02:26.944Z,9.00
2023-02-12T21:05:15.209Z,8.53
2023-02-12T21:08:03.105Z,11.40
2023-02-12T21:10:58.791Z,7.87
2023-02-12T21:13:58.945Z,8.93
2023-02-12T21:16:52.612Z,8.50
2023-02-12T21:19:40.283Z,8.60
2023-02-12T21:22:28.296Z,9.00
2023-02-12T21:25:16.301Z,9.47
2023-02-12T21:28:04.373Z,6.50
2023-02-12T21:30:51.971Z,6.83
2023-02-12T21:33:42.849Z,9.30
2023-02-12T21:36:37.569Z,6.33
2023-02-12T21:39:28.788Z,7.20
2023-02-12T21:42:16.760Z,6.57
2023-02-12T21:45:06.405Z,7.47
2023-02-12T21:47:54.443Z,7.13
2023-02-12T21:50:42.061Z,6.43
2023-02-12T21:53:29.737Z,4.60
2023-02-12T21:56:19.647Z,5.50
2023-02-12T21:59:08.969Z,5.90
2023-02-12T22:01:58.835Z,3.80
2023-02-12T22:04:46.515Z,5.83
2023-02-12T22:07:34.587Z,6.70
2023-02-12T22:10:22.303Z,4.07
2023-02-12T22:13:09.876Z,5.30
2023-02-12T22:15:58.688Z,5.37
2023-02-12T22:18:55.640Z,5.73
2023-02-12T22:21:44.916Z,6.40
2023-02-12T22:24:32.697Z,5.33
2023-02-12T22:27:20.236Z,5.13
2023-02-12T22:30:08.710Z,5.07
2023-02-12T22:32:56.423Z,5.10
2023-02-12T22:35:44.352Z,5.40
2023-02-12T22:38:34.946Z,6.10
2023-02-12T22:41:22.890Z,7.03
2023-02-12T22:44:13.495Z,5.27
2023-02-12T22:47:01.769Z,5.87
2023-02-12T22:49:52.450Z,6.63
2023-02-12T22:52:40.258Z,6.17
2023-02-12T22:55:31.343Z,6.53
2023-02-12T22:58:19.320Z,6.63
2023-02-12T23:01:12.953Z,6.40
2023-02-12T23:04:00.734Z,5.73
2023-02-12T23:06:48.519Z,8.17
2023-02-12T23:09:36.421Z,6.33
2023-02-12T23:12:26.030Z,5.83
2023-02-12T23:15:13.605Z,6.07
2023-02-12T23:18:01.424Z,4.97
2023-02-12T23:20:51.952Z,5.50
2023-02-12T23:23:40.523Z,4.93
2023-02-12T23:26:30.522Z,5.20
2023-02-12T23:29:18.209Z,4.77
2023-02-12T23:32:06.534Z,4.67
2023-02-12T23:34:54.138Z,4.80
2023-02-12T23:37:41.657Z,4.57
2023-02-12T23:40:29.609Z,4.27
2023-02-12T23:43:17.591Z,3.77
2023-02-12T23:46:05.807Z,3.73
2023-02-12T23:48:53.621Z,5.33
2023-02-12T23:51:41.277Z,4.50
2023-02-12T23:54:29.343Z,3.60
2023-02-12T23:57:17.080Z,4.87
